sensor_id;sensor_type;location;lat;lon;timestamp;P1;durP1;ratioP1;P2;durP2;ratioP2
1471;SDS011;963;42.644;23.336;2024-03-07T00:01:46;19.03;;;16.53;;
1471;SDS011;963;42.644;23.336;2024-03-07T00:04:12;22.00;;;16.40;;
1471;SDS011;963;42.644;23.336;2024-03-07T00:06:37;22.47;;;16.27;;
1471;SDS011;963;42.644;23.336;2024-03-07T00:09:03;18.63;;;15.37;;
1471;SDS011;963;42.644;23.336;2024-03-07T00:11:28;20.20;;;14.20;;
1471;SDS011;963;42.644;23.336;2024-03-07T00:13:55;19.40;;;14.60;;
1471;SDS011;963;42.644;23.336;2024-03-07T00:16:20;20.73;;;14.50;;
1471;SDS011;963;42.644;23.336;2024-03-07T00:18:46;18.03;;;15.30;;
1471;SDS011;963;42.644;23.336;2024-03-07T00:21:11;16.50;;;14.07;;
1471;SDS011;963;42.644;23.336;2024-03-07T00:23:37;21.37;;;15.13;;
1471;SDS011;963;42.644;23.336;2024-03-07T00:26:03;19.37;;;14.13;;
1471;SDS011;963;42.644;23.336;2024-03-07T00:28:29;20.03;;;14.10;;
1471;SDS011;963;42.644;23.336;2024-03-07T00:30:58;18.60;;;14.40;;
1471;SDS011;963;42.644;23.336;2024-03-07T00:33:23;18.90;;;14.23;;
1471;SDS011;963;42.644;23.336;2024-03-07T00:35:50;18.70;;;14.60;;
1471;SDS011;963;42.644;23.336;2024-03-07T00:38:15;15.57;;;13.30;;
1471;SDS011;963;42.644;23.336;2024-03-07T00:40:41;18.83;;;14.17;;
1471;SDS011;963;42.644;23.336;2024-03-07T00:43:06;20.37;;;13.87;;
1471;SDS011;963;42.644;23.336;2024-03-07T00:45:32;18.43;;;13.23;;
1471;SDS011;963;42.644;23.336;2024-03-07T00:47:57;16.23;;;12.60;;
1471;SDS011;963;42.644;23.336;2024-03-07T00:50:23;17.03;;;13.23;;
1471;SDS011;963;42.644;23.336;2024-03-07T00:52:50;17.30;;;13.23;;
1471;SDS011;963;42.644;23.336;2024-03-07T00:55:15;16.10;;;12.67;;
1471;SDS011;963;42.644;23.336;2024-03-07T00:57:41;17.27;;;12.83;;
1471;SDS011;963;42.644;23.336;2024-03-07T01:00:07;16.47;;;13.20;;
1471;SDS011;963;42.644;23.336;2024-03-07T01:02:39;14.40;;;12.10;;
1471;SDS011;963;42.644;23.336;2024-03-07T01:05:08;16.33;;;13.07;;
1471;SDS011;963;42.644;23.336;2024-03-07T01:07:35;15.97;;;11.37;;
1471;SDS011;963;42.644;23.336;2024-03-07T01:10:02;14.00;;;11.60;;
1471;SDS011;963;42.644;23.336;2024-03-07T01:12:28;17.53;;;13.60;;
1471;SDS011;963;42.644;23.336;2024-03-07T01:14:55;15.83;;;12.73;;
1471;SDS011;963;42.644;23.336;2024-03-07T01:17:22;15.00;;;12.90;;
1471;SDS011;963;42.644;23.336;2024-03-07T01:19:47;19.10;;;12.23;;
1471;SDS011;963;42.644;23.336;2024-03-07T01:22:13;15.40;;;12.40;;
1471;SDS011;963;42.644;23.336;2024-03-07T01:24:38;17.50;;;13.30;;
1471;SDS011;963;42.644;23.336;2024-03-07T01:27:04;16.30;;;12.37;;
1471;SDS011;963;42.644;23.336;2024-03-07T01:29:30;16.43;;;12.30;;
1471;SDS011;963;42.644;23.336;2024-03-07T01:31:55;14.37;;;12.17;;
1471;SDS011;963;42.644;23.336;2024-03-07T01:34:21;16.00;;;12.87;;
1471;SDS011;963;42.644;23.336;2024-03-07T01:36:46;16.13;;;12.40;;
1471;SDS011;963;42.644;23.336;2024-03-07T01:39:11;16.80;;;11.80;;
1471;SDS011;963;42.644;23.336;2024-03-07T01:41:37;13.37;;;10.93;;
1471;SDS011;963;42.644;23.336;2024-03-07T01:44:03;15.57;;;12.20;;
1471;SDS011;963;42.644;23.336;2024-03-07T01:46:29;13.93;;;11.27;;
1471;SDS011;963;42.644;23.336;2024-03-07T01:48:54;15.67;;;12.47;;
1471;SDS011;963;42.644;23.336;2024-03-07T01:51:20;15.20;;;12.27;;
1471;SDS011;963;42.644;23.336;2024-03-07T01:53:49;14.17;;;10.97;;
1471;SDS011;963;42.644;23.336;2024-03-07T01:56:14;12.67;;;10.47;;
1471;SDS011;963;42.644;23.336;2024-03-07T01:58:41;12.80;;;10.90;;
1471;SDS011;963;42.644;23.336;2024-03-07T02:01:07;13.90;;;10.90;;
1471;SDS011;963;42.644;23.336;2024-03-07T02:03:33;10.63;;;8.90;;
1471;SDS011;963;42.644;23.336;2024-03-07T02:05:59;9.93;;;7.97;;
1471;SDS011;963;42.644;23.336;2024-03-07T02:08:24;8.97;;;7.10;;
1471;SDS011;963;42.644;23.336;2024-03-07T02:10:49;13.47;;;8.97;;
1471;SDS011;963;42.644;23.336;2024-03-07T02:13:15;8.03;;;6.17;;
1471;SDS011;963;42.644;23.336;2024-03-07T02:15:40;3.40;;;2.73;;
1471;SDS011;963;42.644;23.336;2024-03-07T02:18:07;3.73;;;3.37;;
1471;SDS011;963;42.644;23.336;2024-03-07T02:20:34;6.83;;;3.60;;
1471;SDS011;963;42.644;23.336;2024-03-07T02:22:59;4.47;;;3.50;;
1471;SDS011;963;42.644;23.336;2024-03-07T02:25:25;2.23;;;1.97;;
1471;SDS011;963;42.644;23.336;2024-03-07T02:27:50;2.20;;;1.63;;
1471;SDS011;963;42.644;23.336;2024-03-07T02:30:16;1.73;;;1.50;;
1471;SDS011;963;42.644;23.336;2024-03-07T02:32:43;1.90;;;1.50;;
1471;SDS011;963;42.644;23.336;2024-03-07T02:35:14;2.60;;;1.83;;
1471;SDS011;963;42.644;23.336;2024-03-07T02:37:40;1.97;;;1.60;;
1471;SDS011;963;42.644;23.336;2024-03-07T02:40:06;2.73;;;1.60;;
1471;SDS011;963;42.644;23.336;2024-03-07T02:42:32;1.83;;;1.60;;
1471;SDS011;963;42.644;23.336;2024-03-07T02:44:58;2.07;;;1.87;;
1471;SDS011;963;42.644;23.336;2024-03-07T02:47:24;4.10;;;2.23;;
1471;SDS011;963;42.644;23.336;2024-03-07T02:49:50;2.97;;;2.30;;
1471;SDS011;963;42.644;23.336;2024-03-07T02:52:16;3.43;;;2.20;;
1471;SDS011;963;42.644;23.336;2024-03-07T02:54:42;2.50;;;2.17;;
1471;SDS011;963;42.644;23.336;2024-03-07T02:57:07;3.53;;;2.20;;
1471;SDS011;963;42.644;23.336;2024-03-07T02:59:33;3.20;;;2.40;;
1471;SDS011;963;42.644;23.336;2024-03-07T03:01:58;2.37;;;2.17;;
1471;SDS011;963;42.644;23.336;2024-03-07T03:04:23;2.20;;;2.00;;
1471;SDS011;963;42.644;23.336;2024-03-07T03:06:49;2.13;;;1.73;;
1471;SDS011;963;42.644;23.336;2024-03-07T03:09:15;2.10;;;1.90;;
1471;SDS011;963;42.644;23.336;2024-03-07T03:11:42;3.23;;;2.27;;
1471;SDS011;963;42.644;23.336;2024-03-07T03:14:09;5.03;;;2.57;;
1471;SDS011;963;42.644;23.336;2024-03-07T03:16:35;2.50;;;2.00;;
1471;SDS011;963;42.644;23.336;2024-03-07T03:19:01;2.80;;;2.47;;
1471;SDS011;963;42.644;23.336;2024-03-07T03:21:26;5.80;;;2.70;;
1471;SDS011;963;42.644;23.336;2024-03-07T03:23:52;3.10;;;2.37;;
1471;SDS011;963;42.644;23.336;2024-03-07T03:26:19;3.63;;;2.97;;
1471;SDS011;963;42.644;23.336;2024-03-07T03:28:45;3.57;;;2.30;;
1471;SDS011;963;42.644;23.336;2024-03-07T03:31:10;3.37;;;2.73;;
1471;SDS011;963;42.644;23.336;2024-03-07T03:33:38;3.40;;;2.70;;
1471;SDS011;963;42.644;23.336;2024-03-07T03:36:04;3.10;;;2.70;;
1471;SDS011;963;42.644;23.336;2024-03-07T03:38:30;3.60;;;2.40;;
1471;SDS011;963;42.644;23.336;2024-03-07T03:40:56;5.97;;;2.80;;
1471;SDS011;963;42.644;23.336;2024-03-07T03:43:21;4.60;;;1.97;;
1471;SDS011;963;42.644;23.336;2024-03-07T03:45:47;3.30;;;2.40;;
1471;SDS011;963;42.644;23.336;2024-03-07T03:48:13;2.50;;;2.30;;
1471;SDS011;963;42.644;23.336;2024-03-07T03:50:39;2.37;;;2.17;;
1471;SDS011;963;42.644;23.336;2024-03-07T03:53:04;3.23;;;2.50;;
1471;SDS011;963;42.644;23.336;2024-03-07T03:55:30;3.90;;;2.43;;
1471;SDS011;963;42.644;23.336;2024-03-07T03:57:57;3.30;;;2.53;;
1471;SDS011;963;42.644;23.336;2024-03-07T04:00:23;3.50;;;2.90;;
1471;SDS011;963;42.644;23.336;2024-03-07T04:02:48;2.80;;;2.43;;
1471;SDS011;963;42.644;23.336;2024-03-07T04:05:14;3.93;;;2.27;;
1471;SDS011;963;42.644;23.336;2024-03-07T04:07:41;3.03;;;2.63;;
1471;SDS011;963;42.644;23.336;2024-03-07T04:10:07;3.10;;;2.80;;
1471;SDS011;963;42.644;23.336;2024-03-07T04:12:37;4.70;;;3.80;;
1471;SDS011;963;42.644;23.336;2024-03-07T04:15:05;4.77;;;4.03;;
1471;SDS011;963;42.644;23.336;2024-03-07T04:17:32;4.23;;;3.23;;
1471;SDS011;963;42.644;23.336;2024-03-07T04:19:58;4.20;;;3.80;;
1471;SDS011;963;42.644;23.336;2024-03-07T04:22:24;10.10;;;5.33;;
1471;SDS011;963;42.644;23.336;2024-03-07T04:24:51;4.87;;;4.00;;
1471;SDS011;963;42.644;23.336;2024-03-07T04:27:19;5.43;;;4.93;;
1471;SDS011;963;42.644;23.336;2024-03-07T04:29:45;4.90;;;4.33;;
1471;SDS011;963;42.644;23.336;2024-03-07T04:32:12;5.00;;;4.50;;
1471;SDS011;963;42.644;23.336;2024-03-07T04:34:38;5.00;;;4.50;;
1471;SDS011;963;42.644;23.336;2024-03-07T04:37:04;4.40;;;1.93;;
1471;SDS011;963;42.644;23.336;2024-03-07T04:39:29;2.20;;;1.80;;
1471;SDS011;963;42.644;23.336;2024-03-07T04:42:01;1.67;;;1.30;;
1471;SDS011;963;42.644;23.336;2024-03-07T04:44:27;1.80;;;1.60;;
1471;SDS011;963;42.644;23.336;2024-03-07T04:46:53;2.57;;;1.67;;
1471;SDS011;963;42.644;23.336;2024-03-07T04:49:25;1.63;;;1.40;;
1471;SDS011;963;42.644;23.336;2024-03-07T04:51:51;1.83;;;1.60;;
1471;SDS011;963;42.644;23.336;2024-03-07T04:54:18;1.97;;;1.70;;
1471;SDS011;963;42.644;23.336;2024-03-07T04:56:48;2.40;;;1.80;;
1471;SDS011;963;42.644;23.336;2024-03-07T04:59:14;2.00;;;1.50;;
1471;SDS011;963;42.644;23.336;2024-03-07T05:01:41;1.57;;;1.40;;
1471;SDS011;963;42.644;23.336;2024-03-07T05:04:07;2.10;;;1.83;;
1471;SDS011;963;42.644;23.336;2024-03-07T05:06:33;5.27;;;1.50;;
1471;SDS011;963;42.644;23.336;2024-03-07T05:09:01;1.87;;;1.60;;
1471;SDS011;963;42.644;23.336;2024-03-07T05:11:32;1.67;;;1.57;;
1471;SDS011;963;42.644;23.336;2024-03-07T05:13:58;4.50;;;2.03;;
1471;SDS011;963;42.644;23.336;2024-03-07T05:16:24;2.00;;;1.80;;
1471;SDS011;963;42.644;23.336;2024-03-07T05:18:50;2.57;;;2.37;;
1471;SDS011;963;42.644;23.336;2024-03-07T05:21:15;3.00;;;1.87;;
1471;SDS011;963;42.644;23.336;2024-03-07T05:24:03;2.10;;;1.70;;
1471;SDS011;963;42.644;23.336;2024-03-07T05:26:29;3.30;;;2.30;;
1471;SDS011;963;42.644;23.336;2024-03-07T05:29:00;2.20;;;1.90;;
1471;SDS011;963;42.644;23.336;2024-03-07T05:31:30;2.10;;;1.90;;
1471;SDS011;963;42.644;23.336;2024-03-07T05:33:59;2.00;;;1.60;;
1471;SDS011;963;42.644;23.336;2024-03-07T05:36:25;2.50;;;2.30;;
1471;SDS011;963;42.644;23.336;2024-03-07T05:38:51;1.90;;;1.70;;
1471;SDS011;963;42.644;23.336;2024-03-07T05:41:17;1.97;;;1.70;;
1471;SDS011;963;42.644;23.336;2024-03-07T05:43:42;2.20;;;1.77;;
1471;SDS011;963;42.644;23.336;2024-03-07T05:46:09;2.30;;;2.10;;
1471;SDS011;963;42.644;23.336;2024-03-07T05:48:36;2.30;;;2.10;;
1471;SDS011;963;42.644;23.336;2024-03-07T05:51:01;2.80;;;2.07;;
1471;SDS011;963;42.644;23.336;2024-03-07T05:53:27;3.73;;;2.70;;
1471;SDS011;963;42.644;23.336;2024-03-07T05:55:52;3.23;;;2.10;;
1471;SDS011;963;42.644;23.336;2024-03-07T05:58:18;3.97;;;3.00;;
1471;SDS011;963;42.644;23.336;2024-03-07T06:00:45;2.67;;;2.23;;
1471;SDS011;963;42.644;23.336;2024-03-07T06:03:17;3.20;;;2.43;;
1471;SDS011;963;42.644;23.336;2024-03-07T06:05:44;2.70;;;2.17;;
1471;SDS011;963;42.644;23.336;2024-03-07T06:08:16;2.57;;;2.20;;
1471;SDS011;963;42.644;23.336;2024-03-07T06:10:45;2.07;;;1.87;;
1471;SDS011;963;42.644;23.336;2024-03-07T06:13:11;2.13;;;1.93;;
1471;SDS011;963;42.644;23.336;2024-03-07T06:15:38;3.13;;;2.50;;
1471;SDS011;963;42.644;23.336;2024-03-07T06:18:04;2.73;;;2.40;;
1471;SDS011;963;42.644;23.336;2024-03-07T06:20:30;2.47;;;2.07;;
1471;SDS011;963;42.644;23.336;2024-03-07T06:22:56;2.03;;;1.83;;
1471;SDS011;963;42.644;23.336;2024-03-07T06:25:27;1.70;;;1.60;;
1471;SDS011;963;42.644;23.336;2024-03-07T06:28:04;1.90;;;1.57;;
1471;SDS011;963;42.644;23.336;2024-03-07T06:30:38;2.00;;;1.80;;
1471;SDS011;963;42.644;23.336;2024-03-07T06:33:04;2.83;;;2.20;;
1471;SDS011;963;42.644;23.336;2024-03-07T06:35:30;3.40;;;3.10;;
1471;SDS011;963;42.644;23.336;2024-03-07T06:37:56;4.53;;;3.20;;
1471;SDS011;963;42.644;23.336;2024-03-07T06:40:21;4.17;;;3.13;;
1471;SDS011;963;42.644;23.336;2024-03-07T06:42:47;4.70;;;3.67;;
1471;SDS011;963;42.644;23.336;2024-03-07T06:45:17;3.80;;;3.50;;
1471;SDS011;963;42.644;23.336;2024-03-07T06:47:43;3.30;;;3.00;;
1471;SDS011;963;42.644;23.336;2024-03-07T06:50:09;3.60;;;2.83;;
1471;SDS011;963;42.644;23.336;2024-03-07T06:52:35;5.70;;;3.17;;
1471;SDS011;963;42.644;23.336;2024-03-07T06:55:03;6.53;;;3.23;;
1471;SDS011;963;42.644;23.336;2024-03-07T06:57:31;4.50;;;3.73;;
1471;SDS011;963;42.644;23.336;2024-03-07T06:59:56;4.53;;;3.07;;
1471;SDS011;963;42.644;23.336;2024-03-07T07:02:21;3.80;;;3.20;;
1471;SDS011;963;42.644;23.336;2024-03-07T07:04:47;5.57;;;4.00;;
1471;SDS011;963;42.644;23.336;2024-03-07T07:07:13;4.40;;;3.57;;
1471;SDS011;963;42.644;23.336;2024-03-07T07:09:39;5.23;;;3.83;;
1471;SDS011;963;42.644;23.336;2024-03-07T07:12:07;3.30;;;2.90;;
1471;SDS011;963;42.644;23.336;2024-03-07T07:14:33;4.90;;;3.77;;
1471;SDS011;963;42.644;23.336;2024-03-07T07:17:01;4.23;;;3.20;;
1471;SDS011;963;42.644;23.336;2024-03-07T07:19:26;4.20;;;3.50;;
1471;SDS011;963;42.644;23.336;2024-03-07T07:21:52;3.50;;;2.50;;
1471;SDS011;963;42.644;23.336;2024-03-07T07:24:19;3.40;;;2.93;;
1471;SDS011;963;42.644;23.336;2024-03-07T07:26:46;3.33;;;2.70;;
1471;SDS011;963;42.644;23.336;2024-03-07T07:29:12;3.50;;;2.83;;
1471;SDS011;963;42.644;23.336;2024-03-07T07:31:38;3.50;;;2.23;;
1471;SDS011;963;42.644;23.336;2024-03-07T07:34:03;3.10;;;2.53;;
1471;SDS011;963;42.644;23.336;2024-03-07T07:36:29;3.30;;;2.53;;
1471;SDS011;963;42.644;23.336;2024-03-07T07:38:55;3.80;;;2.43;;
1471;SDS011;963;42.644;23.336;2024-03-07T07:41:20;3.20;;;2.20;;
1471;SDS011;963;42.644;23.336;2024-03-07T07:43:46;3.20;;;2.30;;
1471;SDS011;963;42.644;23.336;2024-03-07T07:46:13;2.80;;;2.33;;
1471;SDS011;963;42.644;23.336;2024-03-07T07:48:38;6.53;;;3.03;;
1471;SDS011;963;42.644;23.336;2024-03-07T07:51:03;3.50;;;3.17;;
1471;SDS011;963;42.644;23.336;2024-03-07T07:53:30;14.27;;;4.77;;
1471;SDS011;963;42.644;23.336;2024-03-07T07:55:55;7.00;;;4.30;;
1471;SDS011;963;42.644;23.336;2024-03-07T07:58:20;7.23;;;5.10;;
1471;SDS011;963;42.644;23.336;2024-03-07T08:00:46;6.00;;;4.00;;
1471;SDS011;963;42.644;23.336;2024-03-07T08:03:13;6.77;;;4.67;;
1471;SDS011;963;42.644;23.336;2024-03-07T08:05:40;10.67;;;3.37;;
1471;SDS011;963;42.644;23.336;2024-03-07T08:08:07;5.00;;;3.17;;
1471;SDS011;963;42.644;23.336;2024-03-07T08:10:36;4.37;;;3.03;;
1471;SDS011;963;42.644;23.336;2024-03-07T08:13:03;3.03;;;2.67;;
1471;SDS011;963;42.644;23.336;2024-03-07T08:15:36;3.47;;;2.70;;
1471;SDS011;963;42.644;23.336;2024-03-07T08:18:01;4.60;;;2.07;;
1471;SDS011;963;42.644;23.336;2024-03-07T08:20:27;2.87;;;2.40;;
1471;SDS011;963;42.644;23.336;2024-03-07T08:22:53;2.80;;;2.50;;
1471;SDS011;963;42.644;23.336;2024-03-07T08:25:21;4.03;;;2.73;;
1471;SDS011;963;42.644;23.336;2024-03-07T08:27:48;4.53;;;3.83;;
1471;SDS011;963;42.644;23.336;2024-03-07T08:30:15;4.53;;;3.70;;
1471;SDS011;963;42.644;23.336;2024-03-07T08:32:42;5.67;;;4.07;;
1471;SDS011;963;42.644;23.336;2024-03-07T08:35:09;12.53;;;4.53;;
1471;SDS011;963;42.644;23.336;2024-03-07T08:37:36;5.13;;;4.20;;
1471;SDS011;963;42.644;23.336;2024-03-07T08:40:03;6.20;;;4.60;;
1471;SDS011;963;42.644;23.336;2024-03-07T08:42:30;5.70;;;4.40;;
1471;SDS011;963;42.644;23.336;2024-03-07T08:44:58;7.10;;;5.30;;
1471;SDS011;963;42.644;23.336;2024-03-07T08:47:24;6.13;;;4.10;;
1471;SDS011;963;42.644;23.336;2024-03-07T08:49:50;5.30;;;4.43;;
1471;SDS011;963;42.644;23.336;2024-03-07T08:52:16;4.83;;;3.77;;
1471;SDS011;963;42.644;23.336;2024-03-07T08:54:41;6.83;;;3.93;;
1471;SDS011;963;42.644;23.336;2024-03-07T08:57:07;3.97;;;3.57;;
1471;SDS011;963;42.644;23.336;2024-03-07T08:59:32;5.37;;;4.07;;
1471;SDS011;963;42.644;23.336;2024-03-07T09:01:58;5.00;;;4.43;;
1471;SDS011;963;42.644;23.336;2024-03-07T09:04:26;7.27;;;5.90;;
1471;SDS011;963;42.644;23.336;2024-03-07T09:06:54;5.43;;;4.93;;
1471;SDS011;963;42.644;23.336;2024-03-07T09:09:19;6.07;;;4.97;;
1471;SDS011;963;42.644;23.336;2024-03-07T09:11:45;6.00;;;4.70;;
1471;SDS011;963;42.644;23.336;2024-03-07T09:14:10;7.10;;;6.07;;
1471;SDS011;963;42.644;23.336;2024-03-07T09:16:36;7.47;;;5.87;;
1471;SDS011;963;42.644;23.336;2024-03-07T09:19:01;6.40;;;5.00;;
1471;SDS011;963;42.644;23.336;2024-03-07T09:21:28;6.03;;;4.43;;
1471;SDS011;963;42.644;23.336;2024-03-07T09:23:53;5.13;;;3.80;;
1471;SDS011;963;42.644;23.336;2024-03-07T09:26:19;5.63;;;4.90;;
1471;SDS011;963;42.644;23.336;2024-03-07T09:28:45;6.37;;;4.57;;
1471;SDS011;963;42.644;23.336;2024-03-07T09:31:11;6.97;;;5.43;;
1471;SDS011;963;42.644;23.336;2024-03-07T09:33:39;7.23;;;5.50;;
1471;SDS011;963;42.644;23.336;2024-03-07T09:36:04;7.80;;;5.87;;
1471;SDS011;963;42.644;23.336;2024-03-07T09:38:31;6.63;;;5.70;;
1471;SDS011;963;42.644;23.336;2024-03-07T09:40:57;5.67;;;5.10;;
1471;SDS011;963;42.644;23.336;2024-03-07T09:43:23;4.77;;;4.30;;
1471;SDS011;963;42.644;23.336;2024-03-07T09:45:55;8.80;;;4.60;;
1471;SDS011;963;42.644;23.336;2024-03-07T09:48:20;6.10;;;4.60;;
1471;SDS011;963;42.644;23.336;2024-03-07T09:50:50;10.90;;;4.37;;
1471;SDS011;963;42.644;23.336;2024-03-07T09:53:20;6.20;;;4.63;;
1471;SDS011;963;42.644;23.336;2024-03-07T09:55:46;7.53;;;4.53;;
1471;SDS011;963;42.644;23.336;2024-03-07T09:58:12;7.53;;;4.50;;
1471;SDS011;963;42.644;23.336;2024-03-07T10:00:44;5.20;;;4.40;;
1471;SDS011;963;42.644;23.336;2024-03-07T10:03:13;7.10;;;5.03;;
1471;SDS011;963;42.644;23.336;2024-03-07T10:05:42;7.93;;;4.30;;
1471;SDS011;963;42.644;23.336;2024-03-07T10:08:08;7.30;;;4.90;;
1471;SDS011;963;42.644;23.336;2024-03-07T10:10:33;8.00;;;4.57;;
1471;SDS011;963;42.644;23.336;2024-03-07T10:12:59;6.17;;;4.83;;
1471;SDS011;963;42.644;23.336;2024-03-07T10:15:31;7.23;;;6.10;;
1471;SDS011;963;42.644;23.336;2024-03-07T10:17:58;11.17;;;6.80;;
1471;SDS011;963;42.644;23.336;2024-03-07T10:20:25;8.03;;;5.47;;
1471;SDS011;963;42.644;23.336;2024-03-07T10:22:50;5.30;;;4.50;;
1471;SDS011;963;42.644;23.336;2024-03-07T10:25:20;6.80;;;4.93;;
1471;SDS011;963;42.644;23.336;2024-03-07T10:27:50;6.90;;;5.10;;
1471;SDS011;963;42.644;23.336;2024-03-07T10:30:16;7.67;;;5.13;;
1471;SDS011;963;42.644;23.336;2024-03-07T10:32:46;7.23;;;5.20;;
1471;SDS011;963;42.644;23.336;2024-03-07T10:35:21;6.70;;;4.87;;
1471;SDS011;963;42.644;23.336;2024-03-07T10:37:49;5.97;;;5.27;;
1471;SDS011;963;42.644;23.336;2024-03-07T10:40:15;12.27;;;5.80;;
1471;SDS011;963;42.644;23.336;2024-03-07T10:42:45;7.97;;;5.77;;
1471;SDS011;963;42.644;23.336;2024-03-07T10:45:17;8.93;;;5.87;;
1471;SDS011;963;42.644;23.336;2024-03-07T10:47:46;6.93;;;5.63;;
1471;SDS011;963;42.644;23.336;2024-03-07T10:53:10;12.53;;;5.87;;
1471;SDS011;963;42.644;23.336;2024-03-07T10:55:40;6.40;;;4.73;;
1471;SDS011;963;42.644;23.336;2024-03-07T10:58:31;7.80;;;5.33;;
1471;SDS011;963;42.644;23.336;2024-03-07T11:01:01;6.70;;;5.53;;
1471;SDS011;963;42.644;23.336;2024-03-07T11:03:34;6.40;;;4.20;;
1471;SDS011;963;42.644;23.336;2024-03-07T11:06:00;5.83;;;4.30;;
1471;SDS011;963;42.644;23.336;2024-03-07T11:08:31;5.50;;;3.83;;
1471;SDS011;963;42.644;23.336;2024-03-07T11:11:00;4.57;;;3.97;;
1471;SDS011;963;42.644;23.336;2024-03-07T11:13:26;4.47;;;3.57;;
1471;SDS011;963;42.644;23.336;2024-03-07T11:15:53;4.40;;;4.00;;
1471;SDS011;963;42.644;23.336;2024-03-07T11:18:24;6.07;;;3.70;;
1471;SDS011;963;42.644;23.336;2024-03-07T11:20:49;6.30;;;4.23;;
1471;SDS011;963;42.644;23.336;2024-03-07T11:26:05;3.87;;;3.47;;
1471;SDS011;963;42.644;23.336;2024-03-07T11:28:37;13.57;;;3.40;;
1471;SDS011;963;42.644;23.336;2024-03-07T11:31:13;6.77;;;3.43;;
1471;SDS011;963;42.644;23.336;2024-03-07T11:33:40;3.43;;;3.07;;
1471;SDS011;963;42.644;23.336;2024-03-07T11:36:07;6.93;;;3.77;;
1471;SDS011;963;42.644;23.336;2024-03-07T11:38:34;6.67;;;4.10;;
1471;SDS011;963;42.644;23.336;2024-03-07T11:41:00;5.57;;;4.00;;
1471;SDS011;963;42.644;23.336;2024-03-07T11:43:30;6.33;;;4.00;;
1471;SDS011;963;42.644;23.336;2024-03-07T11:45:56;4.50;;;3.93;;
1471;SDS011;963;42.644;23.336;2024-03-07T11:48:23;13.70;;;4.80;;
1471;SDS011;963;42.644;23.336;2024-03-07T11:50:48;9.20;;;5.20;;
1471;SDS011;963;42.644;23.336;2024-03-07T11:53:15;9.80;;;5.50;;
1471;SDS011;963;42.644;23.336;2024-03-07T11:55:41;6.07;;;4.60;;
1471;SDS011;963;42.644;23.336;2024-03-07T11:58:15;5.00;;;4.13;;
1471;SDS011;963;42.644;23.336;2024-03-07T12:00:42;6.13;;;4.10;;
1471;SDS011;963;42.644;23.336;2024-03-07T12:03:10;5.13;;;3.70;;
1471;SDS011;963;42.644;23.336;2024-03-07T12:05:42;5.53;;;3.73;;
1471;SDS011;963;42.644;23.336;2024-03-07T12:08:11;8.63;;;4.10;;
1471;SDS011;963;42.644;23.336;2024-03-07T12:10:37;5.17;;;4.03;;
1471;SDS011;963;42.644;23.336;2024-03-07T12:13:05;5.10;;;3.33;;
1471;SDS011;963;42.644;23.336;2024-03-07T12:15:31;7.50;;;5.70;;
1471;SDS011;963;42.644;23.336;2024-03-07T12:17:58;8.30;;;4.27;;
1471;SDS011;963;42.644;23.336;2024-03-07T12:20:27;5.83;;;3.67;;
1471;SDS011;963;42.644;23.336;2024-03-07T12:23:01;8.97;;;4.37;;
1471;SDS011;963;42.644;23.336;2024-03-07T12:25:28;8.27;;;3.53;;
1471;SDS011;963;42.644;23.336;2024-03-07T12:28:07;4.50;;;3.80;;
1471;SDS011;963;42.644;23.336;2024-03-07T12:33:11;5.03;;;3.30;;
1471;SDS011;963;42.644;23.336;2024-03-07T12:35:39;5.20;;;3.60;;
1471;SDS011;963;42.644;23.336;2024-03-07T12:38:07;4.80;;;2.60;;
1471;SDS011;963;42.644;23.336;2024-03-07T12:40:35;6.10;;;4.10;;
1471;SDS011;963;42.644;23.336;2024-03-07T12:43:02;5.20;;;3.27;;
1471;SDS011;963;42.644;23.336;2024-03-07T12:45:42;4.60;;;3.60;;
1471;SDS011;963;42.644;23.336;2024-03-07T12:48:13;6.77;;;3.53;;
1471;SDS011;963;42.644;23.336;2024-03-07T12:50:39;6.70;;;3.77;;
1471;SDS011;963;42.644;23.336;2024-03-07T12:53:05;9.63;;;4.50;;
1471;SDS011;963;42.644;23.336;2024-03-07T12:55:36;12.33;;;4.17;;
1471;SDS011;963;42.644;23.336;2024-03-07T12:58:08;7.53;;;4.73;;
1471;SDS011;963;42.644;23.336;2024-03-07T13:00:34;5.63;;;4.60;;
1471;SDS011;963;42.644;23.336;2024-03-07T13:03:01;12.93;;;5.20;;
1471;SDS011;963;42.644;23.336;2024-03-07T13:05:26;8.00;;;5.50;;
1471;SDS011;963;42.644;23.336;2024-03-07T13:07:52;16.80;;;6.80;;
1471;SDS011;963;42.644;23.336;2024-03-07T13:10:18;10.90;;;5.70;;
1471;SDS011;963;42.644;23.336;2024-03-07T13:12:45;9.00;;;4.70;;
1471;SDS011;963;42.644;23.336;2024-03-07T13:15:13;6.30;;;4.33;;
1471;SDS011;963;42.644;23.336;2024-03-07T13:17:40;9.50;;;4.57;;
1471;SDS011;963;42.644;23.336;2024-03-07T13:20:08;8.17;;;5.70;;
1471;SDS011;963;42.644;23.336;2024-03-07T13:22:43;8.07;;;5.03;;
1471;SDS011;963;42.644;23.336;2024-03-07T13:25:22;8.10;;;3.73;;
1471;SDS011;963;42.644;23.336;2024-03-07T13:28:00;4.67;;;3.20;;
1471;SDS011;963;42.644;23.336;2024-03-07T13:30:32;4.10;;;3.40;;
1471;SDS011;963;42.644;23.336;2024-03-07T13:33:01;6.03;;;3.97;;
1471;SDS011;963;42.644;23.336;2024-03-07T13:35:28;5.50;;;3.63;;
1471;SDS011;963;42.644;23.336;2024-03-07T13:37:55;5.40;;;3.10;;
1471;SDS011;963;42.644;23.336;2024-03-07T13:40:24;5.23;;;3.37;;
1471;SDS011;963;42.644;23.336;2024-03-07T13:42:55;4.23;;;2.77;;
1471;SDS011;963;42.644;23.336;2024-03-07T13:45:31;3.60;;;2.77;;
1471;SDS011;963;42.644;23.336;2024-03-07T13:48:04;4.97;;;2.80;;
1471;SDS011;963;42.644;23.336;2024-03-07T13:50:35;5.13;;;3.77;;
1471;SDS011;963;42.644;23.336;2024-03-07T13:53:03;5.73;;;3.50;;
1471;SDS011;963;42.644;23.336;2024-03-07T13:55:32;6.17;;;4.00;;
1471;SDS011;963;42.644;23.336;2024-03-07T13:58:05;6.60;;;2.77;;
1471;SDS011;963;42.644;23.336;2024-03-07T14:06:30;4.63;;;3.20;;
1471;SDS011;963;42.644;23.336;2024-03-07T14:14:36;5.40;;;4.03;;
1471;SDS011;963;42.644;23.336;2024-03-07T14:23:10;6.73;;;4.23;;
1471;SDS011;963;42.644;23.336;2024-03-07T14:26:06;4.97;;;4.47;;
1471;SDS011;963;42.644;23.336;2024-03-07T14:29:05;6.27;;;4.10;;
1471;SDS011;963;42.644;23.336;2024-03-07T14:31:37;4.67;;;3.97;;
1471;SDS011;963;42.644;23.336;2024-03-07T14:37:11;7.90;;;5.10;;
1471;SDS011;963;42.644;23.336;2024-03-07T14:39:51;8.87;;;6.10;;
1471;SDS011;963;42.644;23.336;2024-03-07T14:42:20;5.60;;;4.30;;
1471;SDS011;963;42.644;23.336;2024-03-07T14:44:45;6.70;;;4.80;;
1471;SDS011;963;42.644;23.336;2024-03-07T14:47:13;6.63;;;5.43;;
1471;SDS011;963;42.644;23.336;2024-03-07T14:49:43;6.03;;;4.90;;
1471;SDS011;963;42.644;23.336;2024-03-07T14:52:09;6.27;;;4.73;;
1471;SDS011;963;42.644;23.336;2024-03-07T14:54:36;6.33;;;5.30;;
1471;SDS011;963;42.644;23.336;2024-03-07T14:57:03;8.50;;;5.53;;
1471;SDS011;963;42.644;23.336;2024-03-07T14:59:29;6.93;;;5.83;;
1471;SDS011;963;42.644;23.336;2024-03-07T15:01:55;7.30;;;6.00;;
1471;SDS011;963;42.644;23.336;2024-03-07T15:04:21;11.07;;;7.20;;
1471;SDS011;963;42.644;23.336;2024-03-07T15:06:47;9.27;;;6.63;;
1471;SDS011;963;42.644;23.336;2024-03-07T15:09:12;9.50;;;7.17;;
1471;SDS011;963;42.644;23.336;2024-03-07T15:11:38;11.80;;;8.07;;
1471;SDS011;963;42.644;23.336;2024-03-07T15:14:05;15.63;;;7.30;;
1471;SDS011;963;42.644;23.336;2024-03-07T15:16:33;12.10;;;8.23;;
1471;SDS011;963;42.644;23.336;2024-03-07T15:19:02;12.17;;;8.30;;
1471;SDS011;963;42.644;23.336;2024-03-07T15:21:32;9.90;;;7.63;;
1471;SDS011;963;42.644;23.336;2024-03-07T15:23:58;11.50;;;8.10;;
1471;SDS011;963;42.644;23.336;2024-03-07T15:26:24;9.33;;;7.37;;
1471;SDS011;963;42.644;23.336;2024-03-07T15:28:51;9.17;;;7.60;;
1471;SDS011;963;42.644;23.336;2024-03-07T15:31:17;12.10;;;7.90;;
1471;SDS011;963;42.644;23.336;2024-03-07T15:33:47;11.00;;;7.83;;
1471;SDS011;963;42.644;23.336;2024-03-07T15:36:13;11.57;;;8.07;;
1471;SDS011;963;42.644;23.336;2024-03-07T15:38:39;9.03;;;7.33;;
1471;SDS011;963;42.644;23.336;2024-03-07T15:41:04;9.50;;;6.70;;